Time;durP1;ratioP1;P1;durP2;ratioP2;P2;SDS_P1;SDS_P2;PMS_P1;PMS_P2;Temp;Humidity;BMP_temperature;BMP_pressure;BME280_temperature;BME280_humidity;BME280_pressure;Samples;Min_cycle;Max_cycle;Signal;HPM_P1;HPM_P2
2023/01/01 00:00:48;;;;;;;;;;;;;;;11.83;70.00;98240.34;5030548;28;19925;-75
2023/01/01 00:03:16;;;;;;;;;;;;;;;11.80;70.01;98249.88;5022408;28;20004;-75
2023/01/01 00:05:43;;;;;;;;;;;;;;;11.83;69.89;98256.66;5001107;28;19933;-73
2023/01/01 00:08:11;;;;;;;;;;;;;;;11.78;69.98;98257.56;5010417;28;19937;-74
2023/01/01 00:10:39;;;;;;;;;;;;;;;11.76;70.54;98256.25;5008407;28;19936;-75
2023/01/01 00:13:09;;;;;;;;;;;;;;;11.83;69.79;98253.16;5009380;28;20307;-72
2023/01/01 00:15:37;;;;;;;;;;;;;;;11.79;70.23;98259.16;5000063;28;19941;-75
2023/01/01 00:18:05;;;;;;;;;;;;;;;11.82;69.66;98263.19;5010324;28;19926;-74
2023/01/01 00:20:33;;;;;;;;;;;;;;;11.77;70.18;98253.25;5007898;28;19940;-75
2023/01/01 00:23:02;;;;;;;;;;;;;;;11.76;69.85;98262.50;5010642;28;19926;-74
2023/01/01 00:25:31;;;;;;;;;;;;;;;11.68;70.58;98260.53;5009855;28;19925;-75
2023/01/01 00:27:59;;;;;;;;;;;;;;;11.64;70.66;98258.72;5022878;28;20445;-72
2023/01/01 00:30:28;;;;;;;;;;;;;;;11.62;70.76;98255.53;5015993;28;19976;-75
2023/01/01 00:32:56;;;;;;;;;;;;;;;11.64;70.84;98264.97;5009736;28;19934;-75
2023/01/01 00:35:25;;;;;;;;;;;;;;;11.58;71.36;98260.78;5016473;28;19926;-74
2023/01/01 00:37:58;;;;;;;;;;;;;;;11.48;71.29;98267.25;5030033;28;19968;-74
2023/01/01 00:40:26;;;;;;;;;;;;;;;11.42;71.45;98265.78;5012920;28;19937;-73
2023/01/01 00:42:56;;;;;;;;;;;;;;;11.41;71.59;98261.44;5015281;28;19929;-73
2023/01/01 00:45:24;;;;;;;;;;;;;;;11.44;71.82;98255.38;5015020;28;19926;-76
2023/01/01 00:47:54;;;;;;;;;;;;;;;11.40;71.80;98254.41;5018294;28;20283;-75
2023/01/01 00:50:25;;;;;;;;;;;;;;;11.35;71.63;98245.56;5013714;28;19926;-74
2023/01/01 00:52:53;;;;;;;;;;;;;;;11.34;71.82;98250.19;5010282;28;19925;-75
2023/01/01 00:55:50;;;;;;;;;;;;;;;11.39;71.46;98249.25;5019681;28;20291;-74
2023/01/01 00:58:19;;;;;;;;;;;;;;;11.41;71.50;98250.56;5001041;28;19929;-74
2023/01/01 01:00:47;;;;;;;;;;;;;;;11.33;71.50;98253.22;5012119;28;19925;-75
2023/01/01 01:03:27;;;;;;;;;;;;;;;11.49;70.66;98244.38;5014746;28;19933;-75
2023/01/01 01:05:56;;;;;;;;;;;;;;;11.37;70.90;98238.69;5028778;28;19933;-74
2023/01/01 01:08:24;;;;;;;;;;;;;;;11.39;71.13;98241.09;5020328;28;19932;-75
2023/01/01 01:11:04;;;;;;;;;;;;;;;11.35;70.95;98238.22;5013096;28;19925;-75
2023/01/01 01:13:31;;;;;;;;;;;;;;;11.31;71.07;98245.38;5029778;28;19925;-75
2023/01/01 01:15:59;;;;;;;;;;;;;;;11.32;71.66;98240.72;5022420;28;19929;-75
2023/01/01 01:18:28;;;;;;;;;;;;;;;11.35;71.54;98243.66;5003240;28;19933;-75
2023/01/01 01:20:58;;;;;;;;;;;;;;;11.34;71.28;98236.56;5032096;28;19932;-75
2023/01/01 01:23:27;;;;;;;;;;;;;;;11.34;71.29;98238.50;5031634;28;20030;-75
2023/01/01 01:25:55;;;;;;;;;;;;;;;11.31;71.14;98242.66;5012654;28;20362;-75
2023/01/01 01:28:23;;;;;;;;;;;;;;;11.26;71.61;98245.47;5025989;28;19956;-74
2023/01/01 01:30:51;;;;;;;;;;;;;;;11.34;71.50;98236.56;5033013;28;20337;-75
2023/01/01 01:33:19;;;;;;;;;;;;;;;11.28;71.77;98241.34;5032013;28;19955;-75
2023/01/01 01:35:51;;;;;;;;;;;;;;;11.26;71.77;98248.19;5033086;28;19925;-75
2023/01/01 01:38:19;;;;;;;;;;;;;;;11.27;71.56;98250.59;5030456;28;20391;-73
2023/01/01 01:40:48;;;;;;;;;;;;;;;11.27;71.78;98249.81;5015118;28;19944;-76
2023/01/01 01:43:19;;;;;;;;;;;;;;;11.24;71.52;98261.31;5022269;28;19960;-75
2023/01/01 01:45:48;;;;;;;;;;;;;;;11.19;71.79;98253.28;5030594;28;19948;-75
2023/01/01 01:48:16;;;;;;;;;;;;;;;11.23;71.55;98246.09;5029391;28;19959;-75
2023/01/01 01:50:45;;;;;;;;;;;;;;;11.18;72.09;98246.19;5014473;28;19964;-75
2023/01/01 01:53:17;;;;;;;;;;;;;;;11.22;71.41;98250.72;5033297;28;20323;-75
2023/01/01 01:55:50;;;;;;;;;;;;;;;11.23;71.42;98254.25;5028453;28;19968;-75
2023/01/01 01:58:18;;;;;;;;;;;;;;;11.14;71.59;98261.53;5026764;28;19956;-75
2023/01/01 02:00:49;;;;;;;;;;;;;;;11.13;71.69;98255.31;5033565;28;19960;-75
2023/01/01 02:03:20;;;;;;;;;;;;;;;11.16;71.61;98257.41;5026125;28;19966;-75
2023/01/01 02:05:48;;;;;;;;;;;;;;;11.11;71.84;98252.06;5004332;28;20313;-75
2023/01/01 02:08:17;;;;;;;;;;;;;;;11.11;71.65;98251.25;5034886;28;19943;-75
2023/01/01 02:10:45;;;;;;;;;;;;;;;11.17;71.43;98247.31;5031980;28;19940;-75
2023/01/01 02:13:13;;;;;;;;;;;;;;;11.08;71.66;98241.00;5030455;28;19925;-75
2023/01/01 02:15:43;;;;;;;;;;;;;;;11.12;71.19;98248.22;5032706;28;20407;-75
2023/01/01 02:18:12;;;;;;;;;;;;;;;11.09;71.38;98243.41;5008788;28;19950;-75
2023/01/01 02:20:41;;;;;;;;;;;;;;;11.07;71.35;98236.66;5022343;28;20401;-75
2023/01/01 02:23:14;;;;;;;;;;;;;;;11.08;71.24;98241.00;5032207;28;19935;-75
2023/01/01 02:25:45;;;;;;;;;;;;;;;11.03;71.36;98244.66;5033059;28;20059;-75
2023/01/01 02:28:15;;;;;;;;;;;;;;;11.01;71.20;98242.22;5025590;28;19979;-74
2023/01/01 02:30:45;;;;;;;;;;;;;;;11.05;71.15;98247.06;5022673;28;19951;-72
2023/01/01 02:33:16;;;;;;;;;;;;;;;11.11;71.08;98249.34;5031874;28;19955;-75
2023/01/01 02:35:45;;;;;;;;;;;;;;;11.21;70.57;98245.59;5031145;28;19940;-75
2023/01/01 02:38:20;;;;;;;;;;;;;;;11.24;70.26;98245.00;5031212;28;20333;-75
2023/01/01 02:40:49;;;;;;;;;;;;;;;11.12;70.65;98247.44;5024059;28;20352;-75
2023/01/01 02:43:17;;;;;;;;;;;;;;;11.12;70.75;98242.78;5026317;28;20289;-76
2023/01/01 02:45:53;;;;;;;;;;;;;;;11.12;70.72;98242.00;5022277;28;19925;-75
2023/01/01 02:48:40;;;;;;;;;;;;;;;11.12;70.54;98242.78;5028480;28;19966;-75
2023/01/01 02:51:13;;;;;;;;;;;;;;;11.07;70.83;98242.09;5029255;28;20034;-75
2023/01/01 02:53:43;;;;;;;;;;;;;;;11.08;70.86;98246.44;5012669;28;19955;-75
2023/01/01 02:56:12;;;;;;;;;;;;;;;11.07;70.59;98234.75;5030429;28;19947;-75
2023/01/01 03:01:29;;;;;;;;;;;;;;;11.17;69.92;98239.16;5032150;28;19943;-75
2023/01/01 03:04:01;;;;;;;;;;;;;;;11.08;70.43;98241.00;5012867;28;19987;-75
2023/01/01 03:06:31;;;;;;;;;;;;;;;11.15;70.11;98235.94;5031008;28;20296;-75
2023/01/01 03:09:02;;;;;;;;;;;;;;;11.23;69.77;98241.44;5025480;28;19955;-75
2023/01/01 03:11:32;;;;;;;;;;;;;;;11.15;69.89;98236.75;5027609;28;19939;-75
2023/01/01 03:14:01;;;;;;;;;;;;;;;11.20;69.56;98238.56;5031569;28;19998;-75
2023/01/01 03:16:31;;;;;;;;;;;;;;;11.18;69.72;98243.47;5030639;28;20396;-75
2023/01/01 03:19:12;;;;;;;;;;;;;;;11.23;69.47;98244.16;5033206;28;20385;-75
2023/01/01 03:21:41;;;;;;;;;;;;;;;11.22;69.49;98236.31;5031796;28;19947;-75
2023/01/01 03:24:09;;;;;;;;;;;;;;;11.20;69.71;98239.34;5033632;28;19940;-75
2023/01/01 03:29:53;;;;;;;;;;;;;;;11.18;69.52;98249.72;5031926;28;19970;-75
2023/01/01 03:32:58;;;;;;;;;;;;;;;11.14;69.95;98258.81;5031744;28;20027;-75
2023/01/01 03:35:39;;;;;;;;;;;;;;;11.14;69.49;98266.97;5028182;28;19936;-75
2023/01/01 03:41:03;;;;;;;;;;;;;;;11.17;69.48;98264.44;5011924;28;19986;-75
2023/01/01 03:43:33;;;;;;;;;;;;;;;11.15;69.33;98258.50;5018831;28;20309;-75
2023/01/01 03:46:01;;;;;;;;;;;;;;;11.04;69.98;98273.44;5031543;28;20296;-75
2023/01/01 03:48:56;;;;;;;;;;;;;;;11.01;70.19;98266.69;5030729;28;20006;-75
2023/01/01 03:51:35;;;;;;;;;;;;;;;10.99;70.13;98271.63;5030238;28;20357;-75
2023/01/01 03:54:06;;;;;;;;;;;;;;;10.95;70.11;98270.63;5030093;28;20257;-75
2023/01/01 03:56:35;;;;;;;;;;;;;;;10.99;70.00;98268.91;5026188;28;19956;-75
2023/01/01 03:59:07;;;;;;;;;;;;;;;11.01;69.89;98274.84;5028162;28;20392;-75
2023/01/01 04:01:36;;;;;;;;;;;;;;;10.98;69.94;98255.63;5034951;28;20010;-75
2023/01/01 04:04:04;;;;;;;;;;;;;;;10.88;70.67;98262.09;5012211;28;20444;-75
2023/01/01 04:06:33;;;;;;;;;;;;;;;10.90;70.30;98262.59;5008134;28;19926;-75
2023/01/01 04:09:01;;;;;;;;;;;;;;;10.79;70.92;98276.69;5011524;28;19932;-75
2023/01/01 04:14:25;;;;;;;;;;;;;;;10.82;70.58;98271.47;5010338;28;19925;-75
2023/01/01 04:16:53;;;;;;;;;;;;;;;10.83;70.39;98280.44;5008111;28;19949;-75
2023/01/01 04:19:21;;;;;;;;;;;;;;;10.92;69.89;98281.28;4994177;28;20020;-75
2023/01/01 04:21:50;;;;;;;;;;;;;;;10.91;70.08;98285.13;5009669;28;19993;-75
2023/01/01 04:24:19;;;;;;;;;;;;;;;10.87;70.06;98290.38;5011559;28;19925;-75
2023/01/01 04:26:47;;;;;;;;;;;;;;;10.84;70.01;98293.69;5009313;28;19925;-75
2023/01/01 04:29:15;;;;;;;;;;;;;;;10.88;70.06;98291.19;5008091;28;20264;-74
2023/01/01 04:31:43;;;;;;;;;;;;;;;10.81;69.89;98288.06;5010058;28;19929;-72
2023/01/01 04:34:11;;;;;;;;;;;;;;;10.88;69.58;98291.19;5003981;28;19929;-75
2023/01/01 04:36:39;;;;;;;;;;;;;;;10.83;69.65;98294.00;5015016;28;19941;-75
2023/01/01 04:39:09;;;;;;;;;;;;;;;10.89;69.23;98304.47;5014101;28;19929;-75
2023/01/01 04:41:37;;;;;;;;;;;;;;;10.96;69.08;98306.78;5011073;28;19933;-75
2023/01/01 04:44:05;;;;;;;;;;;;;;;10.96;69.14;98304.84;5014874;28;19934;-75
2023/01/01 04:46:33;;;;;;;;;;;;;;;10.90;68.92;98311.50;5013910;28;19925;-75
2023/01/01 04:49:01;;;;;;;;;;;;;;;10.86;69.11;98305.06;5013387;28;19926;-75
2023/01/01 04:51:29;;;;;;;;;;;;;;;10.86;69.30;98304.25;5013889;28;20485;-75
2023/01/01 04:53:58;;;;;;;;;;;;;;;10.88;69.11;98315.66;5011210;28;20401;-75
2023/01/01 04:56:28;;;;;;;;;;;;;;;10.82;69.17;98317.66;5006602;28;19949;-75
2023/01/01 04:58:57;;;;;;;;;;;;;;;10.76;69.75;98321.59;5003513;28;20542;-75
2023/01/01 05:01:25;;;;;;;;;;;;;;;10.68;70.06;98325.81;5012117;28;19929;-75
2023/01/01 05:04:18;;;;;;;;;;;;;;;10.59;70.92;98329.53;5029903;28;19932;-75
2023/01/01 05:06:46;;;;;;;;;;;;;;;10.60;70.47;98326.53;5034067;28;19925;-75
2023/01/01 05:09:14;;;;;;;;;;;;;;;10.51;71.27;98331.03;5034288;28;19925;-75
2023/01/01 05:11:43;;;;;;;;;;;;;;;10.56;70.79;98327.44;5034038;28;19936;-75
2023/01/01 05:14:11;;;;;;;;;;;;;;;10.53;70.88;98322.59;5026460;28;20437;-75
2023/01/01 05:16:39;;;;;;;;;;;;;;;10.49;70.72;98322.38;5033343;28;19975;-75
2023/01/01 05:19:07;;;;;;;;;;;;;;;10.47;70.85;98335.47;5013873;28;20294;-75
2023/01/01 05:21:36;;;;;;;;;;;;;;;10.48;70.91;98324.28;5034199;28;20182;-75
2023/01/01 05:24:05;;;;;;;;;;;;;;;10.49;71.15;98325.91;5027537;28;19929;-75
2023/01/01 05:26:34;;;;;;;;;;;;;;;10.43;71.17;98331.72;5030542;28;19924;-75
2023/01/01 05:29:05;;;;;;;;;;;;;;;10.45;71.52;98333.06;5027680;28;20371;-75
2023/01/01 05:31:41;;;;;;;;;;;;;;;10.48;71.30;98337.06;5034074;28;19929;-75
2023/01/01 05:34:08;;;;;;;;;;;;;;;10.42;71.72;98338.25;5033719;28;19932;-75
2023/01/01 05:36:37;;;;;;;;;;;;;;;10.31;72.11;98343.06;5031794;28;19929;-75
2023/01/01 05:39:06;;;;;;;;;;;;;;;10.25;72.19;98343.47;5033468;28;19929;-75
2023/01/01 05:41:35;;;;;;;;;;;;;;;10.22;72.35;98344.81;5026182;28;20366;-75
2023/01/01 05:44:06;;;;;;;;;;;;;;;10.30;71.99;98346.09;5027906;28;19933;-75
2023/01/01 05:46:34;;;;;;;;;;;;;;;10.30;72.32;98349.63;5013704;28;19929;-75
2023/01/01 05:49:03;;;;;;;;;;;;;;;10.39;71.53;98358.69;5029837;28;19925;-75
2023/01/01 05:51:31;;;;;;;;;;;;;;;10.39;71.59;98361.41;5031456;28;19951;-75
2023/01/01 05:54:01;;;;;;;;;;;;;;;10.30;71.89;98360.47;5031325;28;19975;-75
2023/01/01 05:56:29;;;;;;;;;;;;;;;10.30;71.79;98351.53;5030758;28;19945;-75
2023/01/01 05:58:56;;;;;;;;;;;;;;;10.28;71.47;98353.72;5030881;28;19932;-75
2023/01/01 06:01:27;;;;;;;;;;;;;;;10.30;71.69;98363.19;5031039;28;20095;-75
2023/01/01 06:03:56;;;;;;;;;;;;;;;10.30;71.66;98362.38;5029957;28;20011;-75
2023/01/01 06:06:24;;;;;;;;;;;;;;;10.31;71.68;98359.38;5031418;28;19971;-75
2023/01/01 06:08:53;;;;;;;;;;;;;;;10.37;71.18;98355.44;5013407;28;19932;-75
2023/01/01 06:11:22;;;;;;;;;;;;;;;10.24;71.60;98356.25;5031877;28;19925;-75
2023/01/01 06:13:52;;;;;;;;;;;;;;;10.28;71.64;98351.84;5030502;28;19935;-75
2023/01/01 06:16:19;;;;;;;;;;;;;;;10.35;71.33;98363.09;5028831;28;19936;-75
2023/01/01 06:18:49;;;;;;;;;;;;;;;10.28;71.93;98359.97;5030110;28;19932;-75
2023/01/01 06:21:19;;;;;;;;;;;;;;;10.30;71.82;98360.47;5031167;28;20298;-76
2023/01/01 06:23:47;;;;;;;;;;;;;;;10.33;71.64;98357.16;5031197;28;19929;-75
2023/01/01 06:26:15;;;;;;;;;;;;;;;10.32;71.36;98366.41;5029260;28;19956;-75
2023/01/01 06:28:44;;;;;;;;;;;;;;;10.35;71.23;98363.09;5028523;28;19925;-74
2023/01/01 06:31:13;;;;;;;;;;;;;;;10.35;71.17;98363.09;5014258;28;19929;-75
2023/01/01 06:33:40;;;;;;;;;;;;;;;10.41;71.66;98367.34;5029647;28;19978;-75
2023/01/01 06:36:11;;;;;;;;;;;;;;;10.39;70.97;98369.56;5030387;28;19925;-75
2023/01/01 06:38:42;;;;;;;;;;;;;;;10.43;70.95;98361.59;5029097;28;19925;-75
2023/01/01 06:41:11;;;;;;;;;;;;;;;10.38;71.43;98365.22;5029335;28;20202;-74
2023/01/01 06:43:39;;;;;;;;;;;;;;;10.35;71.39;98373.97;5029415;28;19925;-75
2023/01/01 06:46:08;;;;;;;;;;;;;;;10.38;71.15;98376.06;5029788;28;19929;-75
2023/01/01 06:48:38;;;;;;;;;;;;;;;10.32;71.42;98377.28;5011951;28;19931;-75
2023/01/01 06:51:07;;;;;;;;;;;;;;;10.37;71.54;98382.63;5028502;28;20001;-63
2023/01/01 06:53:37;;;;;;;;;;;;;;;10.34;71.89;98385.94;5030452;28;19928;-63
2023/01/01 06:56:06;;;;;;;;;;;;;;;10.32;71.67;98388.13;5024152;28;19925;-63
2023/01/01 06:58:36;;;;;;;;;;;;;;;10.40;71.40;98395.63;5028550;28;19936;-63
2023/01/01 07:01:06;;;;;;;;;;;;;;;10.41;71.34;98399.94;5025882;28;19936;-63
2023/01/01 07:03:35;;;;;;;;;;;;;;;10.46;70.94;98399.84;5031909;28;19925;-64
2023/01/01 07:06:03;;;;;;;;;;;;;;;10.43;71.35;98402.34;5029085;28;19932;-63
2023/01/01 07:08:32;;;;;;;;;;;;;;;10.42;71.27;98406.97;5033092;28;20027;-64
2023/01/01 07:11:01;;;;;;;;;;;;;;;10.41;71.33;98413.50;5030206;28;19952;-63
2023/01/01 07:13:29;;;;;;;;;;;;;;;10.45;70.94;98411.81;5030940;28;19952;-63
2023/01/01 07:15:59;;;;;;;;;;;;;;;10.41;71.30;98410.00;5030201;28;19983;-63
2023/01/01 07:18:31;;;;;;;;;;;;;;;10.41;71.30;98418.94;5030245;28;19929;-63
2023/01/01 07:20:59;;;;;;;;;;;;;;;10.48;71.13;98424.78;5031543;28;19932;-63
2023/01/01 07:23:28;;;;;;;;;;;;;;;10.42;71.32;98428.69;5012320;28;19937;-64
2023/01/01 07:25:56;;;;;;;;;;;;;;;10.41;71.66;98424.38;5011986;28;19926;-63
2023/01/01 07:28:26;;;;;;;;;;;;;;;10.39;71.54;98431.22;5029623;28;19926;-63
2023/01/01 07:30:54;;;;;;;;;;;;;;;10.42;71.38;98433.34;5030980;28;19965;-63
2023/01/01 07:33:23;;;;;;;;;;;;;;;10.44;71.36;98442.00;5029102;28;19925;-64
2023/01/01 07:35:51;;;;;;;;;;;;;;;10.52;70.96;98437.78;5021532;28;19932;-63
2023/01/01 07:38:21;;;;;;;;;;;;;;;10.43;71.07;98437.66;5026638;28;19929;-63
2023/01/01 07:41:15;;;;;;;;;;;;;;;10.45;70.93;98441.72;5029454;28;20347;-63
2023/01/01 07:43:44;;;;;;;;;;;;;;;10.54;70.98;98443.72;5012613;28;20020;-65
2023/01/01 07:46:15;;;;;;;;;;;;;;;10.54;70.94;98441.00;5027180;28;20519;-63
2023/01/01 07:48:42;;;;;;;;;;;;;;;10.56;70.82;98442.34;5030590;28;19933;-63
2023/01/01 07:51:10;;;;;;;;;;;;;;;10.55;70.93;98450.78;5029744;28;19940;-63
2023/01/01 07:53:39;;;;;;;;;;;;;;;10.49;70.96;98453.59;5012859;28;19933;-63
2023/01/01 07:56:07;;;;;;;;;;;;;;;10.57;70.85;98449.38;5029885;28;19925;-63
2023/01/01 07:58:38;;;;;;;;;;;;;;;10.66;70.67;98452.22;5030602;28;19971;-63
2023/01/01 08:01:15;;;;;;;;;;;;;;;10.59;70.91;98455.31;5022064;28;19952;-63
2023/01/01 08:03:43;;;;;;;;;;;;;;;10.59;70.95;98454.50;5008609;28;19961;-63
2023/01/01 08:06:12;;;;;;;;;;;;;;;10.69;70.90;98457.06;5029562;28;19929;-62
2023/01/01 08:08:40;;;;;;;;;;;;;;;10.73;70.69;98469.75;5026470;28;19932;-63
2023/01/01 08:11:08;;;;;;;;;;;;;;;10.70;70.52;98469.53;5032104;28;19929;-63
2023/01/01 08:13:36;;;;;;;;;;;;;;;10.86;70.13;98461.91;5031294;28;20713;-63
2023/01/01 08:16:05;;;;;;;;;;;;;;;10.88;70.31;98476.84;5026885;28;20058;-63
2023/01/01 08:18:34;;;;;;;;;;;;;;;10.93;70.06;98476.75;5034293;28;19981;-63
2023/01/01 08:21:02;;;;;;;;;;;;;;;10.93;69.89;98482.19;5028497;28;19940;-63
2023/01/01 08:23:30;;;;;;;;;;;;;;;11.00;69.93;98489.94;5032992;28;19975;-63
2023/01/01 08:25:59;;;;;;;;;;;;;;;11.05;70.20;98491.75;5029971;28;19936;-64
2023/01/01 08:28:28;;;;;;;;;;;;;;;11.02;69.76;98495.88;5026974;28;20162;-64
2023/01/01 08:30:56;;;;;;;;;;;;;;;11.03;70.06;98489.34;5029186;28;19925;-64
2023/01/01 08:33:25;;;;;;;;;;;;;;;11.05;70.13;98486.31;5031253;28;20347;-63
2023/01/01 08:35:54;;;;;;;;;;;;;;;11.18;69.39;98486.31;5028913;28;19956;-64
2023/01/01 08:38:22;;;;;;;;;;;;;;;11.22;69.31;98497.41;5015952;28;19940;-63
2023/01/01 08:40:52;;;;;;;;;;;;;;;11.25;69.32;98491.38;5012446;28;19964;-63
2023/01/01 08:43:20;;;;;;;;;;;;;;;11.28;69.08;98496.22;5027360;28;19960;-63
2023/01/01 08:45:49;;;;;;;;;;;;;;;11.31;69.23;98506.50;5031445;28;20663;-63
2023/01/01 08:48:18;;;;;;;;;;;;;;;11.40;68.81;98501.97;5027171;28;19991;-63
2023/01/01 08:50:51;;;;;;;;;;;;;;;11.43;68.61;98506.00;5033255;28;20421;-63
2023/01/01 08:53:21;;;;;;;;;;;;;;;11.42;68.57;98507.09;5027944;28;19928;-63
2023/01/01 08:55:57;;;;;;;;;;;;;;;11.61;67.58;98510.53;5031677;28;19948;-63
2023/01/01 08:58:25;;;;;;;;;;;;;;;11.58;67.78;98510.34;5030992;28;19996;-63
2023/01/01 09:00:53;;;;;;;;;;;;;;;11.58;67.33;98510.34;5034532;28;19925;-63
2023/01/01 09:03:21;;;;;;;;;;;;;;;11.58;67.82;98510.34;5034294;28;19944;-67
2023/01/01 09:05:49;;;;;;;;;;;;;;;11.83;66.42;98517.22;5011492;28;19986;-66
2023/01/01 09:08:17;;;;;;;;;;;;;;;11.73;66.90;98513.56;5031245;28;19925;-66
2023/01/01 09:10:47;;;;;;;;;;;;;;;11.67;66.84;98519.41;5032605;28;19932;-65
2023/01/01 09:16:12;;;;;;;;;;;;;;;11.59;67.30;98520.91;5032237;28;19933;-70
2023/01/01 09:18:42;;;;;;;;;;;;;;;11.65;67.09;98529.78;5032285;28;19933;-67
2023/01/01 09:21:12;;;;;;;;;;;;;;;11.59;67.58;98533.72;5013571;28;19932;-66
2023/01/01 09:23:40;;;;;;;;;;;;;;;11.68;67.36;98543.59;5016570;28;19929;-65
2023/01/01 09:26:09;;;;;;;;;;;;;;;11.77;67.51;98538.22;5030700;28;19932;-65
2023/01/01 09:28:38;;;;;;;;;;;;;;;11.79;67.18;98544.19;5028639;28;20279;-66
2023/01/01 09:31:06;;;;;;;;;;;;;;;11.79;66.83;98536.03;5028718;28;20412;-66
2023/01/01 09:33:34;;;;;;;;;;;;;;;11.85;66.56;98548.44;5032597;28;19929;-66
2023/01/01 09:36:12;;;;;;;;;;;;;;;11.88;66.35;98545.13;5027370;28;19941;-66
2023/01/01 09:38:40;;;;;;;;;;;;;;;11.89;66.68;98554.09;5031948;28;19975;-66
2023/01/01 09:41:12;;;;;;;;;;;;;;;11.98;66.03;98547.63;5033267;28;19936;-66
2023/01/01 09:43:41;;;;;;;;;;;;;;;12.16;65.44;98547.81;5032018;28;19932;-66
2023/01/01 09:46:12;;;;;;;;;;;;;;;12.11;65.50;98545.19;5030932;28;19929;-66
2023/01/01 09:48:41;;;;;;;;;;;;;;;12.19;65.49;98552.63;5023183;28;20298;-66
2023/01/01 09:51:12;;;;;;;;;;;;;;;12.25;65.35;98548.66;5009709;28;19929;-69
2023/01/01 09:53:41;;;;;;;;;;;;;;;12.33;65.35;98550.69;5024496;28;19925;-66
2023/01/01 09:56:13;;;;;;;;;;;;;;;12.43;65.02;98552.38;5010983;28;19929;-66
2023/01/01 09:58:41;;;;;;;;;;;;;;;12.54;64.58;98551.81;5024972;28;20661;-66
2023/01/01 10:01:12;;;;;;;;;;;;;;;12.64;64.20;98550.00;5029190;28;19978;-66
2023/01/01 10:03:41;;;;;;;;;;;;;;;12.71;64.23;98539.44;5033366;28;19934;-67
2023/01/01 10:06:13;;;;;;;;;;;;;;;12.84;63.67;98541.31;5012167;28;20020;-67
2023/01/01 10:08:44;;;;;;;;;;;;;;;12.94;63.46;98529.31;5020113;28;19929;-66
2023/01/01 10:11:14;;;;;;;;;;;;;;;13.05;62.52;98520.59;5029701;28;19928;-66
2023/01/01 10:13:43;;;;;;;;;;;;;;;13.07;62.57;98520.28;5029836;28;20260;-66
2023/01/01 10:16:13;;;;;;;;;;;;;;;13.06;62.73;98519.47;5031226;28;20267;-66
2023/01/01 10:18:45;;;;;;;;;;;;;;;13.13;62.18;98519.03;5020113;28;19970;-66
2023/01/01 10:21:14;;;;;;;;;;;;;;;13.15;62.08;98514.03;5033807;28;20444;-66
2023/01/01 10:23:43;;;;;;;;;;;;;;;13.16;61.94;98514.88;5031222;28;19939;-67
2023/01/01 10:26:12;;;;;;;;;;;;;;;13.17;62.35;98511.81;5034738;28;19944;-67
2023/01/01 10:28:45;;;;;;;;;;;;;;;13.18;61.72;98518.88;5029768;28;19942;-69
2023/01/01 10:31:17;;;;;;;;;;;;;;;13.13;61.79;98521.75;5013698;28;19935;-67
2023/01/01 10:33:48;;;;;;;;;;;;;;;13.22;61.84;98521.84;5031127;28;19929;-67
2023/01/01 10:36:17;;;;;;;;;;;;;;;13.15;61.96;98515.97;5015758;28;20447;-67
2023/01/01 10:38:48;;;;;;;;;;;;;;;13.08;61.97;98517.22;5028794;28;20416;-67
2023/01/01 10:41:17;;;;;;;;;;;;;;;13.16;61.99;98514.88;5030361;28;20368;-67
2023/01/01 10:43:48;;;;;;;;;;;;;;;13.08;62.11;98522.69;5031627;28;19925;-66
2023/01/01 10:46:18;;;;;;;;;;;;;;;13.14;61.81;98517.09;5033418;28;19958;-66
2023/01/01 10:49:10;;;;;;;;;;;;;;;13.10;61.76;98517.75;5030947;28;19947;-66
2023/01/01 10:51:42;;;;;;;;;;;;;;;13.17;62.05;98521.94;5026352;28;20396;-67
2023/01/01 10:54:19;;;;;;;;;;;;;;;13.25;61.86;98519.25;5030724;28;20380;-67
2023/01/01 10:56:47;;;;;;;;;;;;;;;13.25;61.57;98524.72;5021515;28;20444;-66
2023/01/01 10:59:36;;;;;;;;;;;;;;;13.38;60.84;98523.03;5027318;28;20010;-65
2023/01/01 11:02:17;;;;;;;;;;;;;;;13.44;60.70;98519.03;5006775;28;19944;-66
2023/01/01 11:04:46;;;;;;;;;;;;;;;13.46;60.61;98519.53;5007971;28;19936;-66
2023/01/01 11:07:18;;;;;;;;;;;;;;;13.47;60.73;98525.78;5001466;28;19940;-66
2023/01/01 11:09:47;;;;;;;;;;;;;;;13.52;60.41;98529.16;5004375;28;20627;-66
2023/01/01 11:12:30;;;;;;;;;;;;;;;13.53;60.35;98522.63;4986963;28;20196;-66
2023/01/01 11:15:23;;;;;;;;;;;;;;;13.65;60.10;98527.47;5005635;28;20008;-66
2023/01/01 11:17:51;;;;;;;;;;;;;;;13.61;60.24;98521.81;5005978;28;20000;-66
2023/01/01 11:20:20;;;;;;;;;;;;;;;13.61;60.47;98521.81;5001465;28;19926;-66
2023/01/01 11:22:50;;;;;;;;;;;;;;;13.65;60.22;98521.22;5001357;28;19957;-66
2023/01/01 11:25:20;;;;;;;;;;;;;;;13.57;60.13;98518.13;5009058;28;19925;-65
2023/01/01 11:27:48;;;;;;;;;;;;;;;13.62;59.90;98514.44;4989015;28;19953;-67
2023/01/01 11:30:21;;;;;;;;;;;;;;;13.53;60.43;98519.06;5012993;28;19925;-68
2023/01/01 11:32:52;;;;;;;;;;;;;;;13.65;59.46;98521.22;5010685;28;19925;-68
2023/01/01 11:35:23;;;;;;;;;;;;;;;13.60;59.45;98517.50;4998688;28;19980;-68
2023/01/01 11:38:16;;;;;;;;;;;;;;;13.63;59.34;98519.59;5006164;28;19933;-64
2023/01/01 11:40:44;;;;;;;;;;;;;;;13.57;60.18;98503.66;5011437;28;20334;-67
2023/01/01 11:43:16;;;;;;;;;;;;;;;13.58;59.92;98497.91;5008157;28;20394;-65
2023/01/01 11:45:44;;;;;;;;;;;;;;;13.66;59.49;98500.97;4976070;28;19926;-67
2023/01/01 11:48:14;;;;;;;;;;;;;;;13.65;59.42;98491.16;5008441;28;19929;-67
2023/01/01 11:50:48;;;;;;;;;;;;;;;13.60;59.60;98482.00;5000261;28;19965;-67
2023/01/01 11:53:27;;;;;;;;;;;;;;;13.71;59.35;98471.59;5011552;28;20019;-65
2023/01/01 11:55:59;;;;;;;;;;;;;;;13.71;59.31;98466.13;5005974;28;19933;-67
2023/01/01 11:58:29;;;;;;;;;;;;;;;13.69;59.28;98470.28;5006018;28;20345;-65
2023/01/01 12:00:58;;;;;;;;;;;;;;;13.63;59.93;98470.47;5005414;28;20287;-65
2023/01/01 12:03:29;;;;;;;;;;;;;;;13.60;59.98;98482.00;5019764;28;19929;-65
2023/01/01 12:06:01;;;;;;;;;;;;;;;13.65;59.88;98478.31;5026951;28;19987;-65
2023/01/01 12:08:31;;;;;;;;;;;;;;;13.71;59.17;98477.06;5013731;28;20386;-67
2023/01/01 12:11:00;;;;;;;;;;;;;;;13.71;60.27;98476.25;5027915;28;19930;-65
2023/01/01 12:13:28;;;;;;;;;;;;;;;13.68;59.68;98479.59;5026317;28;20314;-67
2023/01/01 12:15:59;;;;;;;;;;;;;;;13.67;59.95;98478.00;5030515;28;19925;-67
2023/01/01 12:18:30;;;;;;;;;;;;;;;13.65;59.72;98469.34;5026239;28;19929;-65
2023/01/01 12:20:58;;;;;;;;;;;;;;;13.66;59.44;98473.66;5025586;28;19925;-65
2023/01/01 12:23:26;;;;;;;;;;;;;;;13.69;59.54;98467.56;5011204;28;19925;-65
2023/01/01 12:25:58;;;;;;;;;;;;;;;13.67;60.69;98470.59;5028670;28;19934;-66
2023/01/01 12:28:28;;;;;;;;;;;;;;;13.68;59.74;98464.03;5024282;28;19932;-65
2023/01/01 12:30:59;;;;;;;;;;;;;;;13.74;59.61;98470.13;5019377;28;20365;-66
2023/01/01 12:33:48;;;;;;;;;;;;;;;13.70;60.27;98470.00;5025246;28;19948;-66
2023/01/01 12:36:21;;;;;;;;;;;;;;;13.75;60.97;98460.84;5022104;28;19926;-66
2023/01/01 12:39:10;;;;;;;;;;;;;;;13.77;60.95;98464.06;5019275;28;19933;-65
2023/01/01 12:41:40;;;;;;;;;;;;;;;13.83;60.75;98455.38;5023267;28;19933;-65
2023/01/01 12:44:11;;;;;;;;;;;;;;;13.87;60.91;98461.00;5026901;28;19925;-64
2023/01/01 12:46:44;;;;;;;;;;;;;;;13.96;60.23;98461.03;5027630;28;19952;-65
2023/01/01 12:49:34;;;;;;;;;;;;;;;13.92;59.58;98449.94;5025690;28;19933;-65
2023/01/01 12:52:12;;;;;;;;;;;;;;;13.89;59.63;98456.81;5025704;28;19932;-66
2023/01/01 12:54:52;;;;;;;;;;;;;;;13.92;59.53;98451.88;5029851;28;19925;-66
2023/01/01 12:57:23;;;;;;;;;;;;;;;13.89;59.80;98454.09;5028810;28;20539;-66
2023/01/01 12:59:52;;;;;;;;;;;;;;;13.92;59.62;98455.41;5033031;28;20266;-66
2023/01/01 13:02:20;;;;;;;;;;;;;;;13.79;60.67;98446.22;5014447;28;19929;-66
2023/01/01 13:04:49;;;;;;;;;;;;;;;13.81;60.04;98443.97;5034499;28;19933;-66
2023/01/01 13:07:20;;;;;;;;;;;;;;;13.83;60.56;98449.91;5033670;28;19929;-66
2023/01/01 13:09:48;;;;;;;;;;;;;;;13.82;60.50;98453.78;5016044;28;20302;-66
2023/01/01 13:12:17;;;;;;;;;;;;;;;13.84;60.85;98448.00;5033404;28;19925;-66
2023/01/01 13:14:46;;;;;;;;;;;;;;;13.83;60.93;98452.66;5033315;28;19978;-66
2023/01/01 13:17:18;;;;;;;;;;;;;;;13.83;61.00;98449.13;5025510;28;20020;-66
2023/01/01 13:19:46;;;;;;;;;;;;;;;13.84;61.08;98448.00;5015067;28;19932;-67